sensor_id;sensor_type;location;lat;lon;timestamp;P1;durP1;ratioP1;P2;durP2;ratioP2
67049;SDS011;53955;52.442;13.284;2022-09-09T00:01:19;5.85;;;3.60;;
67049;SDS011;53955;52.442;13.284;2022-09-09T00:03:57;5.15;;;3.95;;
67049;SDS011;53955;52.442;13.284;2022-09-09T00:06:28;5.97;;;3.60;;
67049;SDS011;53955;52.442;13.284;2022-09-09T00:09:00;7.03;;;3.95;;
67049;SDS011;53955;52.442;13.284;2022-09-09T00:11:36;6.15;;;4.35;;
67049;SDS011;53955;52.442;13.284;2022-09-09T00:14:11;5.85;;;3.70;;
67049;SDS011;53955;52.442;13.284;2022-09-09T00:16:42;4.97;;;3.30;;
67049;SDS011;53955;52.442;13.284;2022-09-09T00:19:17;5.55;;;3.83;;
67049;SDS011;53955;52.442;13.284;2022-09-09T00:21:50;5.28;;;3.72;;
67049;SDS011;53955;52.442;13.284;2022-09-09T00:24:24;6.25;;;4.50;;
67049;SDS011;53955;52.442;13.284;2022-09-09T00:26:56;5.22;;;3.85;;
67049;SDS011;53955;52.442;13.284;2022-09-09T00:29:28;4.65;;;3.47;;
67049;SDS011;53955;52.442;13.284;2022-09-09T00:32:04;5.55;;;3.67;;
67049;SDS011;53955;52.442;13.284;2022-09-09T00:34:37;5.55;;;3.75;;
67049;SDS011;53955;52.442;13.284;2022-09-09T00:37:08;5.55;;;3.50;;
67049;SDS011;53955;52.442;13.284;2022-09-09T00:39:36;5.93;;;3.90;;
67049;SDS011;53955;52.442;13.284;2022-09-09T00:42:11;5.60;;;3.95;;
67049;SDS011;53955;52.442;13.284;2022-09-09T00:44:44;4.82;;;3.63;;
67049;SDS011;53955;52.442;13.284;2022-09-09T00:47:43;5.50;;;4.10;;
67049;SDS011;53955;52.442;13.284;2022-09-09T00:50:25;6.65;;;4.60;;
67049;SDS011;53955;52.442;13.284;2022-09-09T00:53:07;5.40;;;4.10;;
67049;SDS011;53955;52.442;13.284;2022-09-09T00:55:41;6.25;;;4.00;;
67049;SDS011;53955;52.442;13.284;2022-09-09T00:58:15;5.93;;;3.80;;
67049;SDS011;53955;52.442;13.284;2022-09-09T01:00:43;5.72;;;3.80;;
67049;SDS011;53955;52.442;13.284;2022-09-09T01:03:21;5.78;;;4.25;;
67049;SDS011;53955;52.442;13.284;2022-09-09T01:08:40;6.47;;;3.75;;
67049;SDS011;53955;52.442;13.284;2022-09-09T01:11:21;7.30;;;3.63;;
67049;SDS011;53955;52.442;13.284;2022-09-09T01:13:54;4.95;;;3.55;;
67049;SDS011;53955;52.442;13.284;2022-09-09T01:16:25;6.22;;;4.47;;
67049;SDS011;53955;52.442;13.284;2022-09-09T01:18:53;6.07;;;4.07;;
67049;SDS011;53955;52.442;13.284;2022-09-09T01:21:22;7.57;;;3.95;;
67049;SDS011;53955;52.442;13.284;2022-09-09T01:24:03;5.53;;;3.55;;
67049;SDS011;53955;52.442;13.284;2022-09-09T01:26:40;6.25;;;3.97;;
67049;SDS011;53955;52.442;13.284;2022-09-09T01:29:09;7.45;;;3.53;;
67049;SDS011;53955;52.442;13.284;2022-09-09T01:31:38;5.40;;;4.10;;
67049;SDS011;53955;52.442;13.284;2022-09-09T01:34:09;5.20;;;3.55;;
67049;SDS011;53955;52.442;13.284;2022-09-09T01:36:38;6.40;;;3.72;;
67049;SDS011;53955;52.442;13.284;2022-09-09T01:39:08;5.38;;;3.78;;
67049;SDS011;53955;52.442;13.284;2022-09-09T01:41:35;5.15;;;3.75;;
67049;SDS011;53955;52.442;13.284;2022-09-09T01:44:03;8.13;;;3.63;;
67049;SDS011;53955;52.442;13.284;2022-09-09T01:46:30;6.00;;;4.25;;
67049;SDS011;53955;52.442;13.284;2022-09-09T01:48:57;4.55;;;3.58;;
67049;SDS011;53955;52.442;13.284;2022-09-09T01:51:26;4.78;;;3.50;;
67049;SDS011;53955;52.442;13.284;2022-09-09T01:53:53;6.20;;;3.65;;
67049;SDS011;53955;52.442;13.284;2022-09-09T01:56:22;5.70;;;3.60;;
67049;SDS011;53955;52.442;13.284;2022-09-09T01:59:04;5.60;;;3.65;;
67049;SDS011;53955;52.442;13.284;2022-09-09T02:01:42;6.03;;;4.03;;
67049;SDS011;53955;52.442;13.284;2022-09-09T02:04:22;8.02;;;3.75;;
67049;SDS011;53955;52.442;13.284;2022-09-09T02:06:57;4.88;;;3.65;;
67049;SDS011;53955;52.442;13.284;2022-09-09T02:09:26;5.60;;;4.15;;
67049;SDS011;53955;52.442;13.284;2022-09-09T02:11:59;6.97;;;4.03;;
67049;SDS011;53955;52.442;13.284;2022-09-09T02:14:34;6.63;;;4.20;;
67049;SDS011;53955;52.442;13.284;2022-09-09T02:17:07;4.63;;;3.45;;
67049;SDS011;53955;52.442;13.284;2022-09-09T02:19:37;5.97;;;3.40;;
67049;SDS011;53955;52.442;13.284;2022-09-09T02:22:09;6.82;;;3.53;;
67049;SDS011;53955;52.442;13.284;2022-09-09T02:24:37;6.10;;;3.50;;
67049;SDS011;53955;52.442;13.284;2022-09-09T02:27:06;7.50;;;3.63;;
67049;SDS011;53955;52.442;13.284;2022-09-09T02:29:36;5.90;;;3.90;;
67049;SDS011;53955;52.442;13.284;2022-09-09T02:32:06;6.30;;;3.60;;
67049;SDS011;53955;52.442;13.284;2022-09-09T02:34:44;5.57;;;3.60;;
67049;SDS011;53955;52.442;13.284;2022-09-09T02:37:15;7.28;;;4.20;;
67049;SDS011;53955;52.442;13.284;2022-09-09T02:39:43;5.60;;;3.58;;
67049;SDS011;53955;52.442;13.284;2022-09-09T02:42:10;5.78;;;3.97;;
67049;SDS011;53955;52.442;13.284;2022-09-09T02:44:41;4.97;;;3.40;;
67049;SDS011;53955;52.442;13.284;2022-09-09T02:47:12;5.47;;;3.60;;
67049;SDS011;53955;52.442;13.284;2022-09-09T02:49:52;5.18;;;3.38;;
67049;SDS011;53955;52.442;13.284;2022-09-09T02:52:27;8.82;;;4.20;;
67049;SDS011;53955;52.442;13.284;2022-09-09T02:54:59;6.53;;;3.95;;
67049;SDS011;53955;52.442;13.284;2022-09-09T02:57:35;4.97;;;3.30;;
67049;SDS011;53955;52.442;13.284;2022-09-09T03:00:05;7.05;;;4.25;;
67049;SDS011;53955;52.442;13.284;2022-09-09T03:02:33;5.22;;;3.63;;
67049;SDS011;53955;52.442;13.284;2022-09-09T03:05:00;5.75;;;4.03;;
67049;SDS011;53955;52.442;13.284;2022-09-09T03:07:26;6.30;;;3.83;;
67049;SDS011;53955;52.442;13.284;2022-09-09T03:09:53;5.70;;;3.80;;
67049;SDS011;53955;52.442;13.284;2022-09-09T03:12:20;7.20;;;3.72;;
67049;SDS011;53955;52.442;13.284;2022-09-09T03:14:46;7.63;;;4.43;;
67049;SDS011;53955;52.442;13.284;2022-09-09T03:17:14;5.80;;;3.97;;
67049;SDS011;53955;52.442;13.284;2022-09-09T03:19:41;7.53;;;4.25;;
67049;SDS011;53955;52.442;13.284;2022-09-09T03:22:09;5.28;;;3.50;;
67049;SDS011;53955;52.442;13.284;2022-09-09T03:24:36;6.30;;;4.10;;
67049;SDS011;53955;52.442;13.284;2022-09-09T03:27:03;5.78;;;3.63;;
67049;SDS011;53955;52.442;13.284;2022-09-09T03:29:30;6.88;;;4.28;;
67049;SDS011;53955;52.442;13.284;2022-09-09T03:31:57;5.60;;;3.97;;
67049;SDS011;53955;52.442;13.284;2022-09-09T03:34:26;5.65;;;4.00;;
67049;SDS011;53955;52.442;13.284;2022-09-09T03:36:52;5.22;;;3.33;;
67049;SDS011;53955;52.442;13.284;2022-09-09T03:39:19;6.00;;;4.28;;
67049;SDS011;53955;52.442;13.284;2022-09-09T03:41:45;5.07;;;3.65;;
67049;SDS011;53955;52.442;13.284;2022-09-09T03:44:13;5.53;;;3.92;;
67049;SDS011;53955;52.442;13.284;2022-09-09T03:46:40;6.65;;;3.70;;
67049;SDS011;53955;52.442;13.284;2022-09-09T03:49:06;6.47;;;3.72;;
67049;SDS011;53955;52.442;13.284;2022-09-09T03:51:35;5.70;;;3.95;;
67049;SDS011;53955;52.442;13.284;2022-09-09T03:54:03;7.03;;;4.63;;
67049;SDS011;53955;52.442;13.284;2022-09-09T03:56:33;6.75;;;4.30;;
67049;SDS011;53955;52.442;13.284;2022-09-09T03:58:59;5.38;;;3.47;;
67049;SDS011;53955;52.442;13.284;2022-09-09T04:01:26;6.43;;;4.18;;
67049;SDS011;53955;52.442;13.284;2022-09-09T04:03:53;6.32;;;4.13;;
67049;SDS011;53955;52.442;13.284;2022-09-09T04:06:23;7.45;;;3.92;;
67049;SDS011;53955;52.442;13.284;2022-09-09T04:08:51;7.38;;;4.15;;
67049;SDS011;53955;52.442;13.284;2022-09-09T04:11:18;5.47;;;3.88;;
67049;SDS011;53955;52.442;13.284;2022-09-09T04:13:45;7.32;;;4.25;;
67049;SDS011;53955;52.442;13.284;2022-09-09T04:16:11;5.68;;;3.78;;
67049;SDS011;53955;52.442;13.284;2022-09-09T04:18:39;6.10;;;4.18;;
67049;SDS011;53955;52.442;13.284;2022-09-09T04:21:06;5.38;;;3.97;;
67049;SDS011;53955;52.442;13.284;2022-09-09T04:23:35;5.30;;;3.63;;
67049;SDS011;53955;52.442;13.284;2022-09-09T04:26:03;9.07;;;4.00;;
67049;SDS011;53955;52.442;13.284;2022-09-09T04:28:31;6.43;;;3.47;;
67049;SDS011;53955;52.442;13.284;2022-09-09T04:31:03;5.55;;;4.03;;
67049;SDS011;53955;52.442;13.284;2022-09-09T04:33:30;6.72;;;4.03;;
67049;SDS011;53955;52.442;13.284;2022-09-09T04:35:57;6.10;;;4.05;;
67049;SDS011;53955;52.442;13.284;2022-09-09T04:38:24;5.72;;;3.90;;
67049;SDS011;53955;52.442;13.284;2022-09-09T04:40:51;5.28;;;3.72;;
67049;SDS011;53955;52.442;13.284;2022-09-09T04:43:20;6.22;;;4.22;;
67049;SDS011;53955;52.442;13.284;2022-09-09T04:45:48;6.30;;;3.55;;
67049;SDS011;53955;52.442;13.284;2022-09-09T04:48:16;6.10;;;3.60;;
67049;SDS011;53955;52.442;13.284;2022-09-09T04:50:42;5.32;;;3.55;;
67049;SDS011;53955;52.442;13.284;2022-09-09T04:53:09;5.57;;;3.72;;
67049;SDS011;53955;52.442;13.284;2022-09-09T04:55:35;5.65;;;3.60;;
67049;SDS011;53955;52.442;13.284;2022-09-09T04:58:03;9.40;;;3.60;;
67049;SDS011;53955;52.442;13.284;2022-09-09T05:00:32;5.43;;;3.83;;
67049;SDS011;53955;52.442;13.284;2022-09-09T05:03:01;7.78;;;3.38;;
67049;SDS011;53955;52.442;13.284;2022-09-09T05:05:29;6.07;;;3.60;;
67049;SDS011;53955;52.442;13.284;2022-09-09T05:08:00;5.82;;;3.53;;
67049;SDS011;53955;52.442;13.284;2022-09-09T05:10:27;4.95;;;3.33;;
67049;SDS011;53955;52.442;13.284;2022-09-09T05:12:53;6.22;;;3.67;;
67049;SDS011;53955;52.442;13.284;2022-09-09T05:15:21;5.85;;;3.60;;
67049;SDS011;53955;52.442;13.284;2022-09-09T05:17:49;4.50;;;3.28;;
67049;SDS011;53955;52.442;13.284;2022-09-09T05:20:17;4.75;;;3.35;;
67049;SDS011;53955;52.442;13.284;2022-09-09T05:22:44;4.68;;;2.92;;
67049;SDS011;53955;52.442;13.284;2022-09-09T05:25:10;4.63;;;3.05;;
67049;SDS011;53955;52.442;13.284;2022-09-09T05:27:37;7.18;;;3.30;;
67049;SDS011;53955;52.442;13.284;2022-09-09T05:30:04;7.47;;;3.28;;
67049;SDS011;53955;52.442;13.284;2022-09-09T05:32:31;4.72;;;2.63;;
67049;SDS011;53955;52.442;13.284;2022-09-09T05:35:00;6.35;;;3.53;;
67049;SDS011;53955;52.442;13.284;2022-09-09T05:37:27;4.65;;;2.72;;
67049;SDS011;53955;52.442;13.284;2022-09-09T05:39:55;5.05;;;2.97;;
67049;SDS011;53955;52.442;13.284;2022-09-09T05:42:22;3.72;;;2.75;;
67049;SDS011;53955;52.442;13.284;2022-09-09T05:44:49;5.60;;;2.30;;
67049;SDS011;53955;52.442;13.284;2022-09-09T05:47:19;5.10;;;2.30;;
67049;SDS011;53955;52.442;13.284;2022-09-09T05:49:45;3.28;;;2.30;;
67049;SDS011;53955;52.442;13.284;2022-09-09T05:52:13;4.95;;;2.33;;
67049;SDS011;53955;52.442;13.284;2022-09-09T05:54:40;2.85;;;2.05;;
67049;SDS011;53955;52.442;13.284;2022-09-09T05:57:08;5.68;;;2.17;;
67049;SDS011;53955;52.442;13.284;2022-09-09T05:59:34;3.28;;;2.00;;
67049;SDS011;53955;52.442;13.284;2022-09-09T06:02:01;4.57;;;2.10;;
67049;SDS011;53955;52.442;13.284;2022-09-09T06:04:28;4.60;;;2.00;;
67049;SDS011;53955;52.442;13.284;2022-09-09T06:06:55;4.13;;;1.92;;
67049;SDS011;53955;52.442;13.284;2022-09-09T06:09:23;3.20;;;1.70;;
67049;SDS011;53955;52.442;13.284;2022-09-09T06:11:50;5.05;;;2.00;;
67049;SDS011;53955;52.442;13.284;2022-09-09T06:14:16;3.58;;;1.60;;
67049;SDS011;53955;52.442;13.284;2022-09-09T06:16:43;9.68;;;1.70;;
67049;SDS011;53955;52.442;13.284;2022-09-09T06:19:10;3.75;;;1.70;;
67049;SDS011;53955;52.442;13.284;2022-09-09T06:21:37;5.55;;;1.50;;
67049;SDS011;53955;52.442;13.284;2022-09-09T06:24:05;2.60;;;1.40;;
67049;SDS011;53955;52.442;13.284;2022-09-09T06:26:34;2.85;;;1.10;;
67049;SDS011;53955;52.442;13.284;2022-09-09T06:29:01;4.70;;;1.48;;
67049;SDS011;53955;52.442;13.284;2022-09-09T06:31:30;3.03;;;1.65;;
67049;SDS011;53955;52.442;13.284;2022-09-09T06:33:59;2.13;;;1.33;;
67049;SDS011;53955;52.442;13.284;2022-09-09T06:36:26;3.63;;;1.58;;
67049;SDS011;53955;52.442;13.284;2022-09-09T06:38:54;4.40;;;1.70;;
67049;SDS011;53955;52.442;13.284;2022-09-09T06:41:22;4.53;;;1.80;;
67049;SDS011;53955;52.442;13.284;2022-09-09T06:43:51;5.20;;;1.88;;
67049;SDS011;53955;52.442;13.284;2022-09-09T06:46:18;3.83;;;1.85;;
67049;SDS011;53955;52.442;13.284;2022-09-09T06:48:47;5.32;;;1.60;;
67049;SDS011;53955;52.442;13.284;2022-09-09T06:51:14;2.75;;;1.33;;
67049;SDS011;53955;52.442;13.284;2022-09-09T06:53:43;3.83;;;1.40;;
67049;SDS011;53955;52.442;13.284;2022-09-09T06:56:18;3.17;;;1.67;;
67049;SDS011;53955;52.442;13.284;2022-09-09T06:58:46;2.63;;;1.17;;
67049;SDS011;53955;52.442;13.284;2022-09-09T07:01:15;4.25;;;1.42;;
67049;SDS011;53955;52.442;13.284;2022-09-09T07:03:45;2.28;;;1.30;;
67049;SDS011;53955;52.442;13.284;2022-09-09T07:06:15;2.80;;;1.65;;
67049;SDS011;53955;52.442;13.284;2022-09-09T07:08:47;2.28;;;1.13;;
67049;SDS011;53955;52.442;13.284;2022-09-09T07:11:15;3.40;;;1.40;;
67049;SDS011;53955;52.442;13.284;2022-09-09T07:13:42;5.30;;;1.27;;
67049;SDS011;53955;52.442;13.284;2022-09-09T07:16:09;3.72;;;1.40;;
67049;SDS011;53955;52.442;13.284;2022-09-09T07:18:37;5.38;;;1.45;;
67049;SDS011;53955;52.442;13.284;2022-09-09T07:21:05;2.90;;;1.33;;
67049;SDS011;53955;52.442;13.284;2022-09-09T07:23:33;4.40;;;1.30;;
67049;SDS011;53955;52.442;13.284;2022-09-09T07:26:00;4.28;;;1.30;;
67049;SDS011;53955;52.442;13.284;2022-09-09T07:28:28;2.97;;;1.50;;
67049;SDS011;53955;52.442;13.284;2022-09-09T07:30:56;4.05;;;1.13;;
67049;SDS011;53955;52.442;13.284;2022-09-09T07:33:23;3.60;;;1.25;;
67049;SDS011;53955;52.442;13.284;2022-09-09T07:35:52;1.95;;;1.20;;
67049;SDS011;53955;52.442;13.284;2022-09-09T07:38:19;2.40;;;1.20;;
67049;SDS011;53955;52.442;13.284;2022-09-09T07:40:47;3.40;;;1.20;;
67049;SDS011;53955;52.442;13.284;2022-09-09T07:43:14;4.90;;;1.42;;
67049;SDS011;53955;52.442;13.284;2022-09-09T07:45:42;3.08;;;1.10;;
67049;SDS011;53955;52.442;13.284;2022-09-09T07:48:08;4.68;;;1.42;;
67049;SDS011;53955;52.442;13.284;2022-09-09T07:50:35;1.90;;;1.00;;
67049;SDS011;53955;52.442;13.284;2022-09-09T07:53:03;3.67;;;1.10;;
67049;SDS011;53955;52.442;13.284;2022-09-09T07:55:31;4.28;;;1.50;;
67049;SDS011;53955;52.442;13.284;2022-09-09T07:57:58;1.98;;;1.10;;
67049;SDS011;53955;52.442;13.284;2022-09-09T08:00:24;1.95;;;1.10;;
67049;SDS011;53955;52.442;13.284;2022-09-09T08:02:52;5.90;;;1.38;;
67049;SDS011;53955;52.442;13.284;2022-09-09T08:05:19;4.60;;;1.70;;
67049;SDS011;53955;52.442;13.284;2022-09-09T08:07:47;2.35;;;1.08;;
67049;SDS011;53955;52.442;13.284;2022-09-09T08:10:15;1.83;;;1.00;;
67049;SDS011;53955;52.442;13.284;2022-09-09T08:12:42;2.53;;;1.00;;
67049;SDS011;53955;52.442;13.284;2022-09-09T08:15:10;3.22;;;1.10;;
67049;SDS011;53955;52.442;13.284;2022-09-09T08:17:37;3.28;;;1.20;;
67049;SDS011;53955;52.442;13.284;2022-09-09T08:20:04;3.60;;;1.30;;
67049;SDS011;53955;52.442;13.284;2022-09-09T08:22:31;2.75;;;1.15;;
67049;SDS011;53955;52.442;13.284;2022-09-09T08:24:57;3.10;;;1.42;;
67049;SDS011;53955;52.442;13.284;2022-09-09T08:27:26;4.10;;;1.15;;
67049;SDS011;53955;52.442;13.284;2022-09-09T08:29:52;2.80;;;1.20;;
67049;SDS011;53955;52.442;13.284;2022-09-09T08:32:20;3.17;;;1.27;;
67049;SDS011;53955;52.442;13.284;2022-09-09T08:34:46;3.88;;;1.33;;
67049;SDS011;53955;52.442;13.284;2022-09-09T08:37:14;2.92;;;1.52;;
67049;SDS011;53955;52.442;13.284;2022-09-09T08:39:40;3.13;;;1.30;;
67049;SDS011;53955;52.442;13.284;2022-09-09T08:42:13;2.42;;;1.20;;
67049;SDS011;53955;52.442;13.284;2022-09-09T08:45:09;3.53;;;1.30;;
67049;SDS011;53955;52.442;13.284;2022-09-09T08:47:46;3.25;;;1.48;;
67049;SDS011;53955;52.442;13.284;2022-09-09T08:50:21;2.03;;;1.00;;
67049;SDS011;53955;52.442;13.284;2022-09-09T08:52:53;5.82;;;2.00;;
67049;SDS011;53955;52.442;13.284;2022-09-09T08:55:27;4.40;;;2.10;;
67049;SDS011;53955;52.442;13.284;2022-09-09T08:58:02;2.75;;;1.48;;
67049;SDS011;53955;52.442;13.284;2022-09-09T09:00:38;3.00;;;1.42;;
67049;SDS011;53955;52.442;13.284;2022-09-09T09:03:13;1.85;;;1.10;;
67049;SDS011;53955;52.442;13.284;2022-09-09T09:05:50;4.57;;;1.13;;
67049;SDS011;53955;52.442;13.284;2022-09-09T09:08:27;4.00;;;1.20;;
67049;SDS011;53955;52.442;13.284;2022-09-09T09:10:58;2.15;;;1.33;;
67049;SDS011;53955;52.442;13.284;2022-09-09T09:13:26;5.78;;;1.65;;
67049;SDS011;53955;52.442;13.284;2022-09-09T09:16:06;4.95;;;2.13;;
67049;SDS011;53955;52.442;13.284;2022-09-09T09:18:39;3.58;;;1.20;;
67049;SDS011;53955;52.442;13.284;2022-09-09T09:21:06;3.75;;;1.30;;
67049;SDS011;53955;52.442;13.284;2022-09-09T09:23:43;2.83;;;1.40;;
67049;SDS011;53955;52.442;13.284;2022-09-09T09:26:17;2.60;;;1.08;;
67049;SDS011;53955;52.442;13.284;2022-09-09T09:28:44;2.50;;;1.20;;
67049;SDS011;53955;52.442;13.284;2022-09-09T09:31:13;3.15;;;1.40;;
67049;SDS011;53955;52.442;13.284;2022-09-09T09:33:43;4.00;;;1.35;;
67049;SDS011;53955;52.442;13.284;2022-09-09T09:36:14;3.70;;;1.42;;
67049;SDS011;53955;52.442;13.284;2022-09-09T09:38:51;4.45;;;1.20;;
67049;SDS011;53955;52.442;13.284;2022-09-09T09:41:28;2.35;;;1.38;;
67049;SDS011;53955;52.442;13.284;2022-09-09T09:43:56;3.85;;;1.55;;
67049;SDS011;53955;52.442;13.284;2022-09-09T09:46:24;2.40;;;1.00;;
67049;SDS011;53955;52.442;13.284;2022-09-09T09:48:58;3.92;;;1.13;;
67049;SDS011;53955;52.442;13.284;2022-09-09T09:51:25;2.25;;;1.00;;
67049;SDS011;53955;52.442;13.284;2022-09-09T09:53:53;2.22;;;0.98;;
67049;SDS011;53955;52.442;13.284;2022-09-09T09:56:25;4.10;;;1.30;;
67049;SDS011;53955;52.442;13.284;2022-09-09T09:58:53;2.33;;;0.80;;
67049;SDS011;53955;52.442;13.284;2022-09-09T10:01:22;2.83;;;1.00;;
67049;SDS011;53955;52.442;13.284;2022-09-09T10:03:52;2.30;;;1.30;;
67049;SDS011;53955;52.442;13.284;2022-09-09T10:06:28;1.75;;;1.00;;
67049;SDS011;53955;52.442;13.284;2022-09-09T10:08:57;3.28;;;1.20;;
67049;SDS011;53955;52.442;13.284;2022-09-09T10:11:26;1.50;;;0.93;;
67049;SDS011;53955;52.442;13.284;2022-09-09T10:14:05;7.90;;;1.05;;
67049;SDS011;53955;52.442;13.284;2022-09-09T10:16:43;2.13;;;1.10;;
67049;SDS011;53955;52.442;13.284;2022-09-09T10:19:19;4.18;;;1.10;;
67049;SDS011;53955;52.442;13.284;2022-09-09T10:21:57;2.80;;;0.95;;
67049;SDS011;53955;52.442;13.284;2022-09-09T10:27:38;2.78;;;1.30;;
67049;SDS011;53955;52.442;13.284;2022-09-09T10:30:13;3.75;;;1.00;;
67049;SDS011;53955;52.442;13.284;2022-09-09T10:32:46;1.65;;;0.80;;
67049;SDS011;53955;52.442;13.284;2022-09-09T10:35:22;3.15;;;1.10;;
67049;SDS011;53955;52.442;13.284;2022-09-09T10:40:43;2.35;;;1.02;;
67049;SDS011;53955;52.442;13.284;2022-09-09T10:43:39;1.35;;;0.85;;
67049;SDS011;53955;52.442;13.284;2022-09-09T10:46:29;5.32;;;1.00;;
67049;SDS011;53955;52.442;13.284;2022-09-09T10:49:09;2.30;;;0.95;;
67049;SDS011;53955;52.442;13.284;2022-09-09T10:51:50;4.00;;;1.25;;
67049;SDS011;53955;52.442;13.284;2022-09-09T10:54:28;1.70;;;0.80;;
67049;SDS011;53955;52.442;13.284;2022-09-09T10:57:10;3.83;;;0.98;;
67049;SDS011;53955;52.442;13.284;2022-09-09T10:59:43;2.40;;;0.73;;
67049;SDS011;53955;52.442;13.284;2022-09-09T11:02:15;1.85;;;0.80;;
67049;SDS011;53955;52.442;13.284;2022-09-09T11:04:48;2.83;;;1.00;;
67049;SDS011;53955;52.442;13.284;2022-09-09T11:07:21;3.53;;;1.10;;
67049;SDS011;53955;52.442;13.284;2022-09-09T11:12:22;2.72;;;0.93;;
67049;SDS011;53955;52.442;13.284;2022-09-09T11:14:53;2.03;;;0.90;;
67049;SDS011;53955;52.442;13.284;2022-09-09T11:17:24;3.85;;;0.77;;
67049;SDS011;53955;52.442;13.284;2022-09-09T11:19:58;4.18;;;1.10;;
67049;SDS011;53955;52.442;13.284;2022-09-09T11:22:27;3.38;;;1.13;;
67049;SDS011;53955;52.442;13.284;2022-09-09T11:24:59;2.08;;;0.82;;
67049;SDS011;53955;52.442;13.284;2022-09-09T11:27:31;1.67;;;0.80;;
67049;SDS011;53955;52.442;13.284;2022-09-09T11:30:17;2.30;;;0.90;;
67049;SDS011;53955;52.442;13.284;2022-09-09T11:32:53;3.53;;;1.27;;
67049;SDS011;53955;52.442;13.284;2022-09-09T11:35:53;5.03;;;1.27;;
67049;SDS011;53955;52.442;13.284;2022-09-09T11:38:34;6.55;;;3.00;;
67049;SDS011;53955;52.442;13.284;2022-09-09T11:41:10;10.90;;;4.65;;
67049;SDS011;53955;52.442;13.284;2022-09-09T11:43:39;6.00;;;2.83;;
67049;SDS011;53955;52.442;13.284;2022-09-09T11:46:07;2.88;;;1.40;;
67049;SDS011;53955;52.442;13.284;2022-09-09T11:48:37;4.20;;;1.55;;
67049;SDS011;53955;52.442;13.284;2022-09-09T11:51:09;4.68;;;1.60;;
67049;SDS011;53955;52.442;13.284;2022-09-09T11:53:48;6.63;;;3.47;;
67049;SDS011;53955;52.442;13.284;2022-09-09T11:56:24;5.50;;;2.80;;
67049;SDS011;53955;52.442;13.284;2022-09-09T11:58:56;2.33;;;1.00;;
67049;SDS011;53955;52.442;13.284;2022-09-09T12:01:29;2.05;;;1.20;;
67049;SDS011;53955;52.442;13.284;2022-09-09T12:04:11;7.05;;;2.13;;
67049;SDS011;53955;52.442;13.284;2022-09-09T12:06:45;5.25;;;1.42;;
67049;SDS011;53955;52.442;13.284;2022-09-09T12:09:19;5.43;;;2.05;;
67049;SDS011;53955;52.442;13.284;2022-09-09T12:11:53;3.58;;;1.13;;
67049;SDS011;53955;52.442;13.284;2022-09-09T12:14:35;5.05;;;1.90;;
67049;SDS011;53955;52.442;13.284;2022-09-09T12:17:10;1.67;;;0.68;;
67049;SDS011;53955;52.442;13.284;2022-09-09T12:19:45;4.05;;;1.23;;
67049;SDS011;53955;52.442;13.284;2022-09-09T12:22:15;4.03;;;1.25;;
67049;SDS011;53955;52.442;13.284;2022-09-09T12:24:51;1.73;;;0.52;;
67049;SDS011;53955;52.442;13.284;2022-09-09T12:27:25;2.00;;;0.90;;
67049;SDS011;53955;52.442;13.284;2022-09-09T12:29:57;3.28;;;0.80;;
67049;SDS011;53955;52.442;13.284;2022-09-09T12:32:29;6.63;;;1.27;;
67049;SDS011;53955;52.442;13.284;2022-09-09T12:34:56;5.05;;;1.55;;
67049;SDS011;53955;52.442;13.284;2022-09-09T12:37:29;3.25;;;0.90;;
67049;SDS011;53955;52.442;13.284;2022-09-09T12:40:01;5.53;;;1.17;;
67049;SDS011;53955;52.442;13.284;2022-09-09T12:42:29;5.47;;;1.08;;
67049;SDS011;53955;52.442;13.284;2022-09-09T12:44:58;2.70;;;0.90;;
67049;SDS011;53955;52.442;13.284;2022-09-09T12:47:30;2.72;;;1.13;;
67049;SDS011;53955;52.442;13.284;2022-09-09T12:50:10;2.45;;;0.70;;
67049;SDS011;53955;52.442;13.284;2022-09-09T12:52:42;2.72;;;0.80;;
67049;SDS011;53955;52.442;13.284;2022-09-09T12:55:16;3.72;;;0.90;;
67049;SDS011;53955;52.442;13.284;2022-09-09T12:57:46;5.32;;;1.10;;
67049;SDS011;53955;52.442;13.284;2022-09-09T13:00:16;2.97;;;0.90;;
67049;SDS011;53955;52.442;13.284;2022-09-09T13:02:46;3.15;;;1.30;;
67049;SDS011;53955;52.442;13.284;2022-09-09T13:05:16;1.83;;;1.00;;
67049;SDS011;53955;52.442;13.284;2022-09-09T13:07:45;1.88;;;0.63;;
67049;SDS011;53955;52.442;13.284;2022-09-09T13:10:12;2.17;;;0.80;;
67049;SDS011;53955;52.442;13.284;2022-09-09T13:12:41;3.22;;;0.90;;
67049;SDS011;53955;52.442;13.284;2022-09-09T13:15:11;2.40;;;0.98;;
67049;SDS011;53955;52.442;13.284;2022-09-09T13:17:48;1.50;;;0.80;;
67049;SDS011;53955;52.442;13.284;2022-09-09T13:20:17;5.10;;;1.17;;
67049;SDS011;53955;52.442;13.284;2022-09-09T13:22:46;4.22;;;0.82;;
67049;SDS011;53955;52.442;13.284;2022-09-09T13:25:19;2.50;;;0.77;;
67049;SDS011;53955;52.442;13.284;2022-09-09T13:28:01;1.70;;;0.90;;
67049;SDS011;53955;52.442;13.284;2022-09-09T13:30:29;1.80;;;0.77;;
67049;SDS011;53955;52.442;13.284;2022-09-09T13:33:01;3.80;;;0.82;;
67049;SDS011;53955;52.442;13.284;2022-09-09T13:35:32;2.33;;;0.85;;
67049;SDS011;53955;52.442;13.284;2022-09-09T13:38:06;1.20;;;0.68;;
67049;SDS011;53955;52.442;13.284;2022-09-09T13:40:34;2.33;;;0.90;;
67049;SDS011;53955;52.442;13.284;2022-09-09T13:43:03;1.90;;;0.80;;
67049;SDS011;53955;52.442;13.284;2022-09-09T13:45:30;2.88;;;0.85;;
67049;SDS011;53955;52.442;13.284;2022-09-09T13:47:59;2.35;;;0.80;;
67049;SDS011;53955;52.442;13.284;2022-09-09T13:50:35;3.47;;;0.60;;
67049;SDS011;53955;52.442;13.284;2022-09-09T13:53:02;1.40;;;0.90;;
67049;SDS011;53955;52.442;13.284;2022-09-09T13:55:29;3.70;;;0.95;;
67049;SDS011;53955;52.442;13.284;2022-09-09T13:57:56;2.70;;;1.20;;
67049;SDS011;53955;52.442;13.284;2022-09-09T14:00:28;1.92;;;0.80;;
67049;SDS011;53955;52.442;13.284;2022-09-09T14:02:56;2.35;;;0.80;;
67049;SDS011;53955;52.442;13.284;2022-09-09T14:05:23;2.47;;;0.90;;
67049;SDS011;53955;52.442;13.284;2022-09-09T14:07:50;3.30;;;0.80;;
67049;SDS011;53955;52.442;13.284;2022-09-09T14:10:16;3.58;;;0.85;;
67049;SDS011;53955;52.442;13.284;2022-09-09T14:12:43;1.52;;;0.77;;
67049;SDS011;53955;52.442;13.284;2022-09-09T14:15:11;1.25;;;0.70;;
67049;SDS011;53955;52.442;13.284;2022-09-09T14:17:40;3.20;;;0.90;;
67049;SDS011;53955;52.442;13.284;2022-09-09T14:20:07;3.30;;;0.93;;
67049;SDS011;53955;52.442;13.284;2022-09-09T14:22:36;2.50;;;0.70;;
67049;SDS011;53955;52.442;13.284;2022-09-09T14:25:04;1.98;;;0.68;;
67049;SDS011;53955;52.442;13.284;2022-09-09T14:27:34;1.58;;;0.55;;
67049;SDS011;53955;52.442;13.284;2022-09-09T14:30:00;4.43;;;1.42;;
67049;SDS011;53955;52.442;13.284;2022-09-09T14:32:27;4.03;;;1.65;;
67049;SDS011;53955;52.442;13.284;2022-09-09T14:34:55;3.03;;;0.80;;
67049;SDS011;53955;52.442;13.284;2022-09-09T14:37:22;3.88;;;1.13;;
67049;SDS011;53955;52.442;13.284;2022-09-09T14:39:49;2.80;;;0.75;;
67049;SDS011;53955;52.442;13.284;2022-09-09T14:42:16;1.65;;;1.00;;
67049;SDS011;53955;52.442;13.284;2022-09-09T14:44:43;3.70;;;0.65;;
67049;SDS011;53955;52.442;13.284;2022-09-09T14:47:10;1.67;;;1.05;;
67049;SDS011;53955;52.442;13.284;2022-09-09T14:49:37;2.78;;;0.93;;
67049;SDS011;53955;52.442;13.284;2022-09-09T14:52:05;1.95;;;0.88;;
67049;SDS011;53955;52.442;13.284;2022-09-09T14:54:31;1.92;;;0.70;;
67049;SDS011;53955;52.442;13.284;2022-09-09T14:56:58;2.00;;;0.73;;
67049;SDS011;53955;52.442;13.284;2022-09-09T14:59:25;2.42;;;0.80;;
67049;SDS011;53955;52.442;13.284;2022-09-09T15:01:51;2.92;;;1.00;;
67049;SDS011;53955;52.442;13.284;2022-09-09T15:04:18;3.13;;;0.70;;